KBFL/BFL METAR and TAF weather

Enter ICAO airport designator
Station Type Date Time Source
KBFL METAR 2019/05/23 18:54 UTC NOAA

KBFL 231854Z VRB03KT 10SM BKN095 BKN110 20/09 A2986 RMK AO2 SLP106 T02000089


Station Type Date Time Source
KBFL Decoded METAR 2019/05/23 18:54 UTC NOAA

BAKERSFIELD MEADOWS FIELD, CA, United States (KBFL) 35-26N 119-03W 151M
May 23, 2019 - 02:54 PM EDT / 2019.05.23 1854 UTC
Wind: Variable at 3 MPH (3 KT):0
Visibility: 10 mile(s):0
Sky conditions: mostly cloudy
Temperature: 68.0 F (20.0 C)
Dew Point: 48.0 F (8.9 C)
Relative Humidity: 48%
Pressure (altimeter): 29.86 in. Hg (1011 hPa)
ob: KBFL 231854Z VRB03KT 10SM BKN095 BKN110 20/09 A2986 RMK AO2 SLP106 T02000089
cycle: 19

Station Type Date Time Source
KBFL TAF 2019/05/23 18:42 UTC NOAA

TAF KBFL 231739Z 2318/2418 12008KT P6SM FEW050 BKN120
FM232200 31010G15KT P6SM VCSH OVC050
TEMPO 2323/2403 P6SM -SHRA
FM240300 34007KT P6SM OVC050

Example: see airport list